createdAt,value
2023-02-05T00:00:17.913Z,3.70
2023-02-05T00:00:49.589Z,3.90
2023-02-05T00:01:21.731Z,4.13
2023-02-05T00:01:56.610Z,4.53
2023-02-05T00:02:28.353Z,4.80
2023-02-05T00:03:00.150Z,4.70
2023-02-05T00:03:34.707Z,4.63
2023-02-05T00:04:06.387Z,4.20
2023-02-05T00:04:40.668Z,4.43
2023-02-05T00:05:16.448Z,4.23
2023-02-05T00:05:48.091Z,3.87
2023-02-05T00:06:19.748Z,3.70
2023-02-05T00:06:53.894Z,4.10
2023-02-05T00:07:27.738Z,4.43
2023-02-05T00:07:59.374Z,3.80
2023-02-05T00:08:31.460Z,3.97
2023-02-05T00:09:03.151Z,3.83
2023-02-05T00:09:36.469Z,4.03
2023-02-05T00:10:08.291Z,4.00
2023-02-05T00:10:44.935Z,4.57
2023-02-05T00:11:24.051Z,4.30
2023-02-05T00:11:56.225Z,4.20
2023-02-05T00:12:30.146Z,4.27
2023-02-05T00:13:04.472Z,4.13
2023-02-05T00:13:37.706Z,4.13
2023-02-05T00:14:11.762Z,5.47
2023-02-05T00:14:43.501Z,5.13
2023-02-05T00:15:15.157Z,5.13
2023-02-05T00:15:46.966Z,4.67
2023-02-05T00:16:21.741Z,5.13
2023-02-05T00:16:53.445Z,5.10
2023-02-05T00:17:25.199Z,4.47
2023-02-05T00:17:56.885Z,4.73
2023-02-05T00:18:28.541Z,4.93
2023-02-05T00:19:00.516Z,4.87
2023-02-05T00:19:34.989Z,5.10
2023-02-05T00:20:06.974Z,5.17
2023-02-05T00:20:38.600Z,4.67
2023-02-05T00:21:11.249Z,4.27
2023-02-05T00:21:42.907Z,4.07
2023-02-05T00:22:14.592Z,3.97
2023-02-05T00:22:47.224Z,4.10
2023-02-05T00:23:20.736Z,4.40
2023-02-05T00:23:52.617Z,4.43
2023-02-05T00:24:24.286Z,4.03
2023-02-05T00:24:58.054Z,4.47
2023-02-05T00:25:30.329Z,4.60
2023-02-05T00:26:05.242Z,4.37
2023-02-05T00:26:38.737Z,4.10
2023-02-05T00:27:10.368Z,3.93
2023-02-05T00:27:42.014Z,4.20
2023-02-05T00:28:13.729Z,4.20
2023-02-05T00:28:45.645Z,4.10
2023-02-05T00:29:26.045Z,3.83
2023-02-05T00:30:00.394Z,4.00
2023-02-05T00:30:34.723Z,4.10
2023-02-05T00:31:14.707Z,4.20
2023-02-05T00:31:49.583Z,3.83
2023-02-05T00:32:21.350Z,4.33
2023-02-05T00:32:53.029Z,3.93
2023-02-05T00:33:24.684Z,3.83
2023-02-05T00:33:56.882Z,4.00
2023-02-05T00:34:28.504Z,3.63
2023-02-05T00:35:00.158Z,3.80
2023-02-05T00:35:32.199Z,3.83
2023-02-05T00:36:04.638Z,4.03
2023-02-05T00:36:36.306Z,3.83
2023-02-05T00:37:08.046Z,4.33
2023-02-05T00:37:39.734Z,4.07
2023-02-05T00:38:12.369Z,3.80
2023-02-05T00:38:44.581Z,3.60
2023-02-05T00:39:16.251Z,3.57
2023-02-05T00:39:47.917Z,3.90
2023-02-05T00:40:19.748Z,4.17
2023-02-05T00:40:51.393Z,3.97
2023-02-05T00:41:23.035Z,4.03
2023-02-05T00:41:55.088Z,3.83
2023-02-05T00:42:29.081Z,3.77
2023-02-05T00:43:00.740Z,4.30
2023-02-05T00:43:32.614Z,4.07
2023-02-05T00:44:07.823Z,3.87
2023-02-05T00:44:39.496Z,4.20
2023-02-05T00:45:11.130Z,4.00
2023-02-05T00:45:42.781Z,3.77
2023-02-05T00:46:15.118Z,3.70
2023-02-05T00:46:46.778Z,4.33
2023-02-05T00:47:18.445Z,4.00
2023-02-05T00:47:50.079Z,3.80
2023-02-05T00:48:24.020Z,4.07
2023-02-05T00:48:57.977Z,4.20
2023-02-05T00:49:29.615Z,4.07
2023-02-05T00:50:01.250Z,3.87
2023-02-05T00:50:33.941Z,3.87
2023-02-05T00:51:06.127Z,4.03
2023-02-05T00:51:37.764Z,4.13
2023-02-05T00:52:09.508Z,3.80
2023-02-05T00:52:41.201Z,3.97
2023-02-05T00:53:12.843Z,3.87
2023-02-05T00:53:44.469Z,4.37
2023-02-05T00:54:16.257Z,4.17
2023-02-05T00:54:47.907Z,4.17
2023-02-05T00:55:22.458Z,4.43
2023-02-05T00:55:54.414Z,4.23
2023-02-05T00:56:26.165Z,4.60
2023-02-05T00:56:58.097Z,4.40
2023-02-05T00:57:29.766Z,4.70
2023-02-05T00:58:03.753Z,4.50
2023-02-05T00:58:36.932Z,4.17
2023-02-05T00:59:08.622Z,4.47
2023-02-05T00:59:40.279Z,4.03
2023-02-05T01:00:12.500Z,3.90
2023-02-05T01:00:45.390Z,4.30
2023-02-05T01:01:17.437Z,4.80
2023-02-05T01:01:50.465Z,4.40
2023-02-05T01:02:24.099Z,4.17
2023-02-05T01:02:56.194Z,4.63
2023-02-05T01:03:27.915Z,4.50
2023-02-05T01:03:59.599Z,4.47
2023-02-05T01:04:31.310Z,4.30
2023-02-05T01:05:02.959Z,4.33
2023-02-05T01:06:21.929Z,4.43
2023-02-05T01:06:53.573Z,4.30
2023-02-05T01:07:25.231Z,4.33
2023-02-05T01:07:59.638Z,4.37
2023-02-05T01:08:33.432Z,4.70
2023-02-05T01:09:05.202Z,4.40
2023-02-05T01:09:36.867Z,3.97
2023-02-05T01:10:08.933Z,4.03
2023-02-05T01:10:48.858Z,4.47
2023-02-05T01:11:20.505Z,4.20
2023-02-05T01:11:53.192Z,4.33
2023-02-05T01:12:25.333Z,4.60
2023-02-05T01:12:57.262Z,4.43
2023-02-05T01:13:28.924Z,4.43
2023-02-05T01:14:00.923Z,4.43
2023-02-05T01:14:32.614Z,4.30
2023-02-05T01:15:06.822Z,4.60
2023-02-05T01:15:39.103Z,4.57
2023-02-05T01:16:14.346Z,4.50
2023-02-05T01:16:46.076Z,4.33
2023-02-05T01:17:17.886Z,4.37
2023-02-05T01:17:49.544Z,4.30
2023-02-05T01:18:21.196Z,4.20
2023-02-05T01:18:56.279Z,4.40
2023-02-05T01:19:27.952Z,4.77
2023-02-05T01:20:08.522Z,4.87
2023-02-05T01:20:45.845Z,4.47
2023-02-05T01:21:17.498Z,4.27
2023-02-05T01:21:49.181Z,4.33
2023-02-05T01:22:21.185Z,4.67
2023-02-05T01:22:53.255Z,4.80
2023-02-05T01:23:25.048Z,4.40
2023-02-05T01:23:57.887Z,4.77
2023-02-05T01:24:37.064Z,4.80
2023-02-05T01:25:09.957Z,4.73
2023-02-05T01:25:44.153Z,4.77
2023-02-05T01:26:15.862Z,4.53
2023-02-05T01:26:49.934Z,5.13
2023-02-05T01:27:21.730Z,4.73
2023-02-05T01:27:53.390Z,4.53
2023-02-05T01:28:25.144Z,4.70
2023-02-05T01:28:56.807Z,5.30
2023-02-05T01:29:29.461Z,4.73
2023-02-05T01:30:05.596Z,4.93
2023-02-05T01:30:37.603Z,5.07
2023-02-05T01:31:09.448Z,5.00
2023-02-05T01:31:41.169Z,4.67
2023-02-05T01:32:12.896Z,4.57
2023-02-05T01:32:44.555Z,4.90
2023-02-05T01:33:16.562Z,5.23
2023-02-05T01:33:48.212Z,5.10
2023-02-05T01:34:19.877Z,4.63
2023-02-05T01:34:51.548Z,4.53
2023-02-05T01:35:23.251Z,4.50
2023-02-05T01:35:54.922Z,4.37
2023-02-05T01:36:26.660Z,4.73
2023-02-05T01:36:58.522Z,4.77
2023-02-05T01:37:31.186Z,4.70
2023-02-05T01:38:02.858Z,4.97
2023-02-05T01:38:41.959Z,4.90
2023-02-05T01:39:13.657Z,5.53
2023-02-05T01:39:45.377Z,5.17
2023-02-05T01:40:17.503Z,4.47
2023-02-05T01:40:49.160Z,4.63
2023-02-05T01:41:20.902Z,4.57
2023-02-05T01:41:57.218Z,4.60
2023-02-05T01:42:39.289Z,4.57
2023-02-05T01:43:15.896Z,4.73
2023-02-05T01:44:09.228Z,4.80
2023-02-05T01:44:40.918Z,4.63
2023-02-05T01:45:32.632Z,5.03
2023-02-05T01:46:19.584Z,4.70
2023-02-05T01:46:57.683Z,5.20
2023-02-05T01:47:29.345Z,5.07
2023-02-05T01:48:06.112Z,4.50
2023-02-05T01:48:46.644Z,4.73
2023-02-05T01:49:42.723Z,4.77
2023-02-05T01:50:15.985Z,4.77
2023-02-05T01:50:59.378Z,5.13
2023-02-05T01:51:36.933Z,4.73
2023-02-05T01:52:17.508Z,4.27
2023-02-05T01:52:52.875Z,4.37
2023-02-05T01:53:31.785Z,4.17
2023-02-05T01:54:04.934Z,4.73
2023-02-05T01:54:41.573Z,4.93
2023-02-05T01:55:13.914Z,5.10
2023-02-05T01:55:55.566Z,4.87
2023-02-05T01:56:37.622Z,5.03
2023-02-05T01:57:19.628Z,5.00
2023-02-05T01:57:53.754Z,5.13
2023-02-05T01:58:31.105Z,5.23
2023-02-05T01:59:11.928Z,4.73
2023-02-05T01:59:45.134Z,4.93
2023-02-05T02:00:16.889Z,5.43
2023-02-05T02:00:51.043Z,4.97
2023-02-05T02:01:24.348Z,5.23
2023-02-05T02:01:56.744Z,5.00
2023-02-05T02:02:30.469Z,4.87
2023-02-05T02:03:02.496Z,4.87
2023-02-05T02:03:34.367Z,5.13
2023-02-05T02:04:06.538Z,5.07
2023-02-05T02:04:42.073Z,4.70
2023-02-05T02:05:16.739Z,4.57
2023-02-05T02:05:48.461Z,4.87
2023-02-05T02:06:20.154Z,4.83
2023-02-05T02:06:51.808Z,4.83
2023-02-05T02:07:25.151Z,5.03
2023-02-05T02:07:56.821Z,5.30
2023-02-05T02:08:28.661Z,5.27
2023-02-05T02:09:04.068Z,5.03
2023-02-05T02:09:36.306Z,5.33
2023-02-05T02:10:12.631Z,5.50
2023-02-05T02:10:49.787Z,5.07
2023-02-05T02:11:25.854Z,4.93
2023-02-05T02:12:00.178Z,4.90
2023-02-05T02:12:39.455Z,5.27
2023-02-05T02:13:14.244Z,5.07
2023-02-05T02:13:48.919Z,5.23
2023-02-05T02:14:21.925Z,4.80
2023-02-05T02:14:58.015Z,5.10
2023-02-05T02:15:30.092Z,5.17
2023-02-05T02:16:06.041Z,5.53
2023-02-05T02:16:40.594Z,5.33
2023-02-05T02:17:15.466Z,5.63
2023-02-05T02:17:51.979Z,5.13
2023-02-05T02:18:26.324Z,5.13
2023-02-05T02:18:59.764Z,5.00
2023-02-05T02:19:37.304Z,4.87
2023-02-05T02:20:14.561Z,5.17
2023-02-05T02:20:52.919Z,5.00
2023-02-05T02:22:04.216Z,4.90
2023-02-05T02:22:57.993Z,5.37
2023-02-05T02:23:47.496Z,5.43
2023-02-05T02:24:43.029Z,5.10
2023-02-05T02:25:33.288Z,4.97
2023-02-05T02:26:43.635Z,5.60
2023-02-05T02:27:33.608Z,5.03
2023-02-05T02:28:37.156Z,5.50
2023-02-05T02:29:29.562Z,5.37
2023-02-05T02:30:06.364Z,5.37
2023-02-05T02:30:40.748Z,5.33
2023-02-05T02:31:55.909Z,5.30
2023-02-05T02:32:41.520Z,5.63
2023-02-05T02:33:28.312Z,5.33
2023-02-05T02:34:16.061Z,5.80
2023-02-05T02:34:53.861Z,5.40
2023-02-05T02:35:33.261Z,5.47
2023-02-05T02:36:23.073Z,5.30
2023-02-05T02:37:12.913Z,5.97
2023-02-05T02:37:57.550Z,5.53
2023-02-05T02:38:43.066Z,5.67
2023-02-05T02:39:14.640Z,5.20
2023-02-05T02:40:00.492Z,4.80
2023-02-05T02:40:49.935Z,5.73
2023-02-05T02:41:27.619Z,5.50
2023-02-05T02:42:07.842Z,5.27
2023-02-05T02:42:52.023Z,5.67
2023-02-05T02:43:38.981Z,5.00
2023-02-05T02:44:18.153Z,5.23
2023-02-05T02:44:52.843Z,5.60
2023-02-05T02:45:29.267Z,5.30
2023-02-05T02:46:27.600Z,5.37
2023-02-05T02:47:06.770Z,5.27
2023-02-05T02:47:49.626Z,5.27
2023-02-05T02:48:25.808Z,5.20
2023-02-05T02:49:04.032Z,4.87
2023-02-05T02:49:42.798Z,4.87
2023-02-05T02:50:23.975Z,5.23
2023-02-05T02:50:58.716Z,5.47
2023-02-05T02:51:34.094Z,5.27
2023-02-05T02:52:12.097Z,5.03
2023-02-05T02:52:48.414Z,5.53
2023-02-05T02:53:34.398Z,5.87
2023-02-05T02:54:11.141Z,4.83
2023-02-05T02:54:49.938Z,5.37
2023-02-05T02:55:24.584Z,5.23
2023-02-05T02:55:58.690Z,5.43
2023-02-05T02:56:33.855Z,5.60
2023-02-05T02:57:09.693Z,5.63
2023-02-05T02:57:47.853Z,5.43
2023-02-05T02:58:40.188Z,5.60
2023-02-05T02:59:27.168Z,5.27
2023-02-05T03:00:02.227Z,5.83
2023-02-05T03:00:34.465Z,5.57
2023-02-05T03:01:10.170Z,5.67
2023-02-05T03:01:53.957Z,5.60
2023-02-05T03:02:33.630Z,5.03
2023-02-05T03:03:12.536Z,5.13
2023-02-05T03:03:54.376Z,5.60
2023-02-05T03:04:34.605Z,5.53
2023-02-05T03:05:14.556Z,5.17
2023-02-05T03:05:48.975Z,5.37
2023-02-05T03:06:22.779Z,5.30
2023-02-05T03:07:00.255Z,5.10
2023-02-05T03:07:37.892Z,5.87
2023-02-05T03:08:25.182Z,5.53
2023-02-05T03:09:21.327Z,5.50
2023-02-05T03:10:00.467Z,5.43
2023-02-05T03:10:41.167Z,5.27
2023-02-05T03:11:15.365Z,5.37
2023-02-05T03:11:47.768Z,5.63
2023-02-05T03:12:22.728Z,5.00
2023-02-05T03:12:58.828Z,5.63
2023-02-05T03:13:31.987Z,5.67
2023-02-05T03:14:06.125Z,5.63
2023-02-05T03:14:38.460Z,5.73
2023-02-05T03:15:14.277Z,5.80
2023-02-05T03:15:47.557Z,5.50
2023-02-05T03:16:21.590Z,5.67
2023-02-05T03:16:54.252Z,5.87
2023-02-05T03:17:30.199Z,5.63
2023-02-05T03:18:02.159Z,5.50
2023-02-05T03:18:34.148Z,5.70
2023-02-05T03:19:06.436Z,5.30
2023-02-05T03:19:38.209Z,5.47
2023-02-05T03:20:26.477Z,5.40
2023-02-05T03:21:10.957Z,5.63
2023-02-05T03:21:48.138Z,5.80
2023-02-05T03:22:19.813Z,5.37
2023-02-05T03:22:51.775Z,5.93
2023-02-05T03:23:24.532Z,5.73
2023-02-05T03:23:56.716Z,5.77
2023-02-05T03:24:29.294Z,5.20
2023-02-05T03:25:02.976Z,5.57
2023-02-05T03:25:34.888Z,5.60
2023-02-05T03:26:33.702Z,5.97
2023-02-05T03:27:14.186Z,5.50
2023-02-05T03:27:46.582Z,5.03
2023-02-05T03:28:18.591Z,4.93
2023-02-05T03:28:53.241Z,5.93
2023-02-05T03:29:30.565Z,5.57
2023-02-05T03:30:05.006Z,5.60
2023-02-05T03:31:07.821Z,5.90
2023-02-05T03:31:59.703Z,5.87
2023-02-05T03:32:49.734Z,6.20
2023-02-05T03:33:43.169Z,6.47
2023-02-05T03:34:33.378Z,5.83
2023-02-05T03:35:19.758Z,5.70
2023-02-05T03:36:03.039Z,6.27
2023-02-05T03:36:47.242Z,5.87
2023-02-05T03:37:49.761Z,5.70
2023-02-05T03:38:51.833Z,6.53
2023-02-05T03:39:44.691Z,5.93
2023-02-05T03:40:26.409Z,5.27
2023-02-05T03:41:06.888Z,5.73
2023-02-05T03:41:56.764Z,5.90
2023-02-05T03:42:37.166Z,6.20
2023-02-05T03:43:30.418Z,6.57
2023-02-05T03:44:19.805Z,6.10
2023-02-05T03:44:57.470Z,6.03
2023-02-05T03:45:34.957Z,6.10
2023-02-05T03:46:48.026Z,5.93
2023-02-05T03:47:31.114Z,6.53
2023-02-05T03:48:11.690Z,5.93
2023-02-05T03:49:04.788Z,6.53
2023-02-05T03:50:07.193Z,5.80
2023-02-05T03:50:50.524Z,5.57
2023-02-05T03:51:53.331Z,5.93
2023-02-05T03:52:35.740Z,5.53
2023-02-05T03:53:18.976Z,5.70
2023-02-05T03:54:00.948Z,5.83
2023-02-05T03:54:44.281Z,5.70
2023-02-05T03:55:22.704Z,5.70
2023-02-05T03:56:09.620Z,5.83
2023-02-05T03:56:48.553Z,6.17
2023-02-05T03:57:24.158Z,5.70
2023-02-05T03:58:04.199Z,5.67
2023-02-05T03:58:47.230Z,6.20
2023-02-05T03:59:21.838Z,5.67
2023-02-05T03:59:55.449Z,5.67
2023-02-05T04:00:30.283Z,5.53
2023-02-05T04:01:03.478Z,5.80
2023-02-05T04:01:36.284Z,5.90
2023-02-05T04:02:10.842Z,5.73
2023-02-05T04:02:43.496Z,5.03
2023-02-05T04:03:15.631Z,5.27
2023-02-05T04:03:47.269Z,5.57
2023-02-05T04:04:20.547Z,5.23
2023-02-05T04:04:54.860Z,5.17
2023-02-05T04:05:29.348Z,5.60
2023-02-05T04:06:00.982Z,5.73
2023-02-05T04:06:32.641Z,5.50
2023-02-05T04:07:04.395Z,5.37
2023-02-05T04:07:36.048Z,5.53
2023-02-05T04:08:09.316Z,6.40
2023-02-05T04:08:41.072Z,5.83
2023-02-05T04:09:15.212Z,6.07
2023-02-05T04:09:46.875Z,5.97
2023-02-05T04:10:19.450Z,5.63
2023-02-05T04:10:51.127Z,5.30
2023-02-05T04:11:22.828Z,5.73
2023-02-05T04:11:54.486Z,5.50
2023-02-05T04:12:26.166Z,5.50
2023-02-05T04:12:57.823Z,5.37
2023-02-05T04:13:29.516Z,5.33
2023-02-05T04:14:01.232Z,5.53
2023-02-05T04:14:32.996Z,5.23
2023-02-05T04:15:05.291Z,5.37
2023-02-05T04:15:37.003Z,5.13
2023-02-05T04:16:08.664Z,5.50
2023-02-05T04:16:40.475Z,5.53
2023-02-05T04:17:14.611Z,5.50
2023-02-05T04:17:48.104Z,5.57
2023-02-05T04:18:19.767Z,5.87
2023-02-05T04:18:54.985Z,5.57
2023-02-05T04:19:32.317Z,5.53
2023-02-05T04:20:10.417Z,5.70
2023-02-05T04:20:50.937Z,5.80
2023-02-05T04:21:25.345Z,5.57
2023-02-05T04:21:56.987Z,5.77
2023-02-05T04:22:30.483Z,6.40
2023-02-05T04:23:04.269Z,5.80
2023-02-05T04:23:35.936Z,5.63
2023-02-05T04:24:10.485Z,6.43
2023-02-05T04:24:42.203Z,5.93
2023-02-05T04:25:13.944Z,5.97
2023-02-05T04:25:45.673Z,5.73
2023-02-05T04:26:17.385Z,6.07
2023-02-05T04:26:52.555Z,6.07
2023-02-05T04:27:24.211Z,5.57
2023-02-05T04:27:55.991Z,5.53
2023-02-05T04:28:27.777Z,6.23
2023-02-05T04:29:00.108Z,5.57
2023-02-05T04:29:31.794Z,5.60
2023-02-05T04:30:03.916Z,5.73
2023-02-05T04:30:38.069Z,5.80
2023-02-05T04:31:12.355Z,5.80
2023-02-05T04:31:53.766Z,5.73
2023-02-05T04:32:25.492Z,5.77
2023-02-05T04:32:59.738Z,5.57
2023-02-05T04:33:31.376Z,6.13
2023-02-05T04:34:03.009Z,6.30
2023-02-05T04:34:37.140Z,5.93
2023-02-05T04:35:08.788Z,5.23
2023-02-05T04:35:40.469Z,4.83
2023-02-05T04:36:14.293Z,5.17
2023-02-05T04:36:46.199Z,5.77
2023-02-05T04:37:17.888Z,5.67
2023-02-05T04:37:52.234Z,5.83
2023-02-05T04:38:23.976Z,6.33
2023-02-05T04:38:56.846Z,6.37
2023-02-05T04:39:28.612Z,5.77
2023-02-05T04:40:00.251Z,5.93
2023-02-05T04:40:31.888Z,5.70
2023-02-05T04:41:03.711Z,5.97
2023-02-05T04:41:36.363Z,6.37
2023-02-05T04:42:08.019Z,6.03
2023-02-05T04:42:39.749Z,6.40
2023-02-05T04:43:11.402Z,5.80
2023-02-05T04:43:45.252Z,5.63
2023-02-05T04:44:16.995Z,6.00
2023-02-05T04:44:48.761Z,5.90
2023-02-05T04:45:20.536Z,6.03
2023-02-05T04:45:52.255Z,6.03
2023-02-05T04:46:32.794Z,6.43
2023-02-05T04:47:04.489Z,6.57
2023-02-05T04:47:36.175Z,6.40
2023-02-05T04:48:07.846Z,6.30
2023-02-05T04:48:39.826Z,6.47
2023-02-05T04:49:11.526Z,6.27
2023-02-05T04:49:43.198Z,6.17
2023-02-05T04:50:15.718Z,5.87
2023-02-05T04:50:47.948Z,6.67
2023-02-05T04:51:19.608Z,6.13
2023-02-05T04:51:53.858Z,6.00
2023-02-05T04:52:25.795Z,6.27
2023-02-05T04:52:57.489Z,5.93
2023-02-05T04:53:31.484Z,6.20
2023-02-05T04:54:03.468Z,6.10
2023-02-05T04:54:37.164Z,6.23
2023-02-05T04:55:08.820Z,6.13
2023-02-05T04:55:42.942Z,6.63
2023-02-05T04:56:17.463Z,6.63
2023-02-05T04:56:49.144Z,7.50
2023-02-05T04:57:20.867Z,7.67
2023-02-05T04:57:52.778Z,7.13
2023-02-05T04:58:24.496Z,6.63
2023-02-05T04:58:58.177Z,6.10
2023-02-05T04:59:35.748Z,5.87
2023-02-05T05:00:10.314Z,6.50
2023-02-05T05:00:41.947Z,6.37
2023-02-05T05:01:16.805Z,6.33
2023-02-05T05:01:48.483Z,6.57
2023-02-05T05:02:20.199Z,5.80
2023-02-05T05:02:52.629Z,6.10
2023-02-05T05:03:24.282Z,5.73
2023-02-05T05:03:58.682Z,5.60
2023-02-05T05:04:30.358Z,6.17
2023-02-05T05:05:02.143Z,5.73
2023-02-05T05:05:36.946Z,5.73
2023-02-05T05:06:09.316Z,6.33
2023-02-05T05:06:41.035Z,6.37
2023-02-05T05:07:12.722Z,6.27
2023-02-05T05:07:46.965Z,6.87
2023-02-05T05:08:21.629Z,7.90
2023-02-05T05:08:53.845Z,8.27
2023-02-05T05:09:34.135Z,8.13
2023-02-05T05:10:11.888Z,8.37
2023-02-05T05:10:43.572Z,7.90
2023-02-05T05:11:17.991Z,7.53
2023-02-05T05:11:55.781Z,7.10
2023-02-05T05:12:29.409Z,6.40
2023-02-05T05:13:01.080Z,5.77
2023-02-05T05:13:35.399Z,5.90
2023-02-05T05:14:07.326Z,5.77
2023-02-05T05:14:39.076Z,6.00
2023-02-05T05:15:11.092Z,5.30
2023-02-05T05:15:44.731Z,5.67
2023-02-05T05:16:16.505Z,5.77
2023-02-05T05:16:52.459Z,5.63
2023-02-05T05:17:24.107Z,5.67
2023-02-05T05:17:58.240Z,5.83
2023-02-05T05:18:30.003Z,6.43
2023-02-05T05:19:04.038Z,6.40
2023-02-05T05:19:37.054Z,5.83
2023-02-05T05:20:11.155Z,5.80
2023-02-05T05:20:42.821Z,6.03
2023-02-05T05:21:14.484Z,5.93
2023-02-05T05:21:46.177Z,5.80
2023-02-05T05:22:21.438Z,5.53
2023-02-05T05:22:53.059Z,5.67
2023-02-05T05:23:24.922Z,5.87
2023-02-05T05:23:56.582Z,6.20
2023-02-05T05:24:28.208Z,6.13
2023-02-05T05:24:59.826Z,6.23
2023-02-05T05:25:31.817Z,6.33
2023-02-05T05:26:08.324Z,5.77
2023-02-05T05:26:46.303Z,6.07
2023-02-05T05:27:18.752Z,6.60
2023-02-05T05:27:50.417Z,6.97
2023-02-05T05:28:22.237Z,7.00
2023-02-05T05:28:55.537Z,7.27
2023-02-05T05:29:27.249Z,7.67
2023-02-05T05:29:58.904Z,8.10
2023-02-05T05:30:30.557Z,8.37
2023-02-05T05:31:11.214Z,8.57
2023-02-05T05:31:44.130Z,8.30
2023-02-05T05:32:15.863Z,8.10
2023-02-05T05:32:47.526Z,7.90
2023-02-05T05:33:19.168Z,7.47
2023-02-05T05:33:51.195Z,7.13
2023-02-05T05:34:22.931Z,6.80
2023-02-05T05:34:58.427Z,6.80
2023-02-05T05:35:30.543Z,6.77
2023-02-05T05:36:02.636Z,6.33
2023-02-05T05:36:37.317Z,6.37
2023-02-05T05:37:11.580Z,6.53
2023-02-05T05:37:43.265Z,6.93
2023-02-05T05:38:14.903Z,6.83
2023-02-05T05:38:46.577Z,7.57
2023-02-05T05:39:36.750Z,8.40
2023-02-05T05:40:31.370Z,9.00
2023-02-05T05:41:22.646Z,14.43
2023-02-05T05:42:12.805Z,18.97
2023-02-05T05:43:02.888Z,24.53
2023-02-05T05:43:49.071Z,27.63
2023-02-05T05:44:20.716Z,32.23
2023-02-05T05:44:53.014Z,35.17
2023-02-05T05:45:27.814Z,39.33
2023-02-05T05:46:01.726Z,41.20
2023-02-05T05:46:33.889Z,39.90
2023-02-05T05:47:08.128Z,36.93
2023-02-05T05:47:39.881Z,31.40
2023-02-05T05:48:11.541Z,29.90
2023-02-05T05:48:43.189Z,27.50
2023-02-05T05:49:14.819Z,25.80
2023-02-05T05:49:47.471Z,26.07
2023-02-05T05:50:21.864Z,28.37
2023-02-05T05:50:53.687Z,31.53
2023-02-05T05:51:27.475Z,31.57
2023-02-05T05:51:59.108Z,31.23
2023-02-05T05:52:32.487Z,33.07
2023-02-05T05:53:04.460Z,30.63
2023-02-05T05:53:37.380Z,28.97
2023-02-05T05:54:09.012Z,28.33
2023-02-05T05:54:40.768Z,28.53
2023-02-05T05:55:12.537Z,28.90
2023-02-05T05:55:44.241Z,26.93
2023-02-05T05:56:16.598Z,24.07
2023-02-05T05:56:49.569Z,23.40
2023-02-05T05:57:21.259Z,21.57
2023-02-05T05:57:57.277Z,17.67
2023-02-05T05:58:28.987Z,12.80
2023-02-05T05:59:00.621Z,10.97
2023-02-05T05:59:32.363Z,10.60
2023-02-05T06:00:05.557Z,9.53
2023-02-05T06:00:41.292Z,8.27
2023-02-05T06:01:18.378Z,8.30
2023-02-05T06:01:49.983Z,8.57
2023-02-05T06:02:23.189Z,8.50
2023-02-05T06:02:54.825Z,8.30
2023-02-05T06:03:26.577Z,7.63
2023-02-05T06:03:58.201Z,7.90
2023-02-05T06:04:30.352Z,7.87
2023-02-05T06:05:02.323Z,7.27
2023-02-05T06:05:34.454Z,7.50
2023-02-05T06:06:08.196Z,7.77
2023-02-05T06:06:39.947Z,7.43
2023-02-05T06:07:11.626Z,8.00
2023-02-05T06:07:43.307Z,8.57
2023-02-05T06:08:16.322Z,8.60
2023-02-05T06:08:48.047Z,9.20
2023-02-05T06:09:21.680Z,9.57
2023-02-05T06:09:53.358Z,9.77
2023-02-05T06:10:28.090Z,9.07
2023-02-05T06:10:59.894Z,9.63
2023-02-05T06:11:31.570Z,9.77
2023-02-05T06:12:05.650Z,9.40
2023-02-05T06:12:39.387Z,9.07
2023-02-05T06:13:11.076Z,8.67
2023-02-05T06:13:42.771Z,9.00
2023-02-05T06:14:14.596Z,8.13
2023-02-05T06:14:46.245Z,7.37
2023-02-05T06:15:18.085Z,7.33
2023-02-05T06:15:49.770Z,7.90
2023-02-05T06:16:24.025Z,8.37
2023-02-05T06:16:55.933Z,8.47
2023-02-05T06:17:29.389Z,7.97
2023-02-05T06:18:01.232Z,9.20
2023-02-05T06:18:33.077Z,10.23
2023-02-05T06:19:06.130Z,9.93
2023-02-05T06:19:37.781Z,10.63
2023-02-05T06:20:10.125Z,9.57
2023-02-05T06:20:41.752Z,8.47
2023-02-05T06:21:13.396Z,7.43
2023-02-05T06:21:47.446Z,7.03
2023-02-05T06:22:19.193Z,6.57
2023-02-05T06:22:50.876Z,6.70
2023-02-05T06:23:22.622Z,6.77
2023-02-05T06:23:54.263Z,7.23
2023-02-05T06:24:25.953Z,7.53
2023-02-05T06:24:57.840Z,7.20
2023-02-05T06:25:29.504Z,6.77
2023-02-05T06:26:01.208Z,6.57
2023-02-05T06:26:32.906Z,6.97
2023-02-05T06:27:04.580Z,6.33
2023-02-05T06:27:36.317Z,6.90
2023-02-05T06:28:09.808Z,7.43
2023-02-05T06:28:41.467Z,7.43
2023-02-05T06:29:14.627Z,8.03
2023-02-05T06:29:46.252Z,8.00
2023-02-05T06:30:18.087Z,8.40
2023-02-05T06:30:49.849Z,8.57
2023-02-05T06:31:23.830Z,8.13
2023-02-05T06:31:55.497Z,7.77
2023-02-05T06:32:27.239Z,7.83
2023-02-05T06:32:58.899Z,8.00
2023-02-05T06:33:30.617Z,7.63
2023-02-05T06:34:04.717Z,7.53
2023-02-05T06:34:36.358Z,7.10
2023-02-05T06:35:10.411Z,7.67
2023-02-05T06:35:42.899Z,8.13
2023-02-05T06:36:14.730Z,8.00
2023-02-05T06:36:46.364Z,7.73
2023-02-05T06:37:18.047Z,8.23
2023-02-05T06:37:49.742Z,8.53
2023-02-05T06:38:21.446Z,8.13
2023-02-05T06:38:55.288Z,7.63
2023-02-05T06:39:29.536Z,7.37
2023-02-05T06:40:04.019Z,6.90
2023-02-05T06:40:35.979Z,7.00
2023-02-05T06:41:07.643Z,7.50
2023-02-05T06:41:41.347Z,7.57
2023-02-05T06:42:12.995Z,7.03
2023-02-05T06:42:45.511Z,6.97
2023-02-05T06:43:17.188Z,7.47
2023-02-05T06:43:50.456Z,7.53
2023-02-05T06:44:22.217Z,7.17
2023-02-05T06:44:54.004Z,7.20
2023-02-05T06:45:25.692Z,6.70
2023-02-05T06:45:59.922Z,7.00
2023-02-05T06:46:31.617Z,7.63
2023-02-05T06:47:03.405Z,8.07
2023-02-05T06:47:37.419Z,7.57
2023-02-05T06:48:10.382Z,8.47
2023-02-05T06:48:42.066Z,8.87
2023-02-05T06:49:13.712Z,8.83
2023-02-05T06:49:45.381Z,8.57
2023-02-05T06:50:17.038Z,8.53
2023-02-05T06:50:48.697Z,8.60
2023-02-05T06:51:20.425Z,8.23
2023-02-05T06:51:52.286Z,8.17
2023-02-05T06:52:23.914Z,8.13
2023-02-05T06:52:55.677Z,7.97
2023-02-05T06:53:27.525Z,7.67
2023-02-05T06:54:00.682Z,7.80
2023-02-05T06:54:43.505Z,7.63
2023-02-05T06:55:15.178Z,8.13
2023-02-05T06:55:54.285Z,7.87
2023-02-05T06:56:25.935Z,8.13
2023-02-05T06:56:57.963Z,8.00
2023-02-05T06:57:29.755Z,8.40
2023-02-05T06:58:04.451Z,7.93
2023-02-05T06:58:36.107Z,8.90
2023-02-05T06:59:09.127Z,8.90
2023-02-05T06:59:40.778Z,13.03
2023-02-05T07:00:13.132Z,17.47
2023-02-05T07:00:44.821Z,15.57
2023-02-05T07:01:17.062Z,12.20
2023-02-05T07:01:48.846Z,11.00
2023-02-05T07:02:20.633Z,11.17
2023-02-05T07:02:53.214Z,14.67
2023-02-05T07:03:24.887Z,23.40
2023-02-05T07:03:56.590Z,43.07
2023-02-05T07:04:30.971Z,50.60
2023-02-05T07:05:03.191Z,59.80
2023-02-05T07:05:35.289Z,64.83
2023-02-05T07:06:07.889Z,62.97
2023-02-05T07:06:41.367Z,61.97
2023-02-05T07:07:13.705Z,60.37
2023-02-05T07:07:45.681Z,59.87
2023-02-05T07:08:17.673Z,61.20
2023-02-05T07:08:50.394Z,61.10
2023-02-05T07:09:24.357Z,61.37
2023-02-05T07:09:55.987Z,57.60
2023-02-05T07:10:29.974Z,55.60
2023-02-05T07:11:04.365Z,53.17
2023-02-05T07:11:36.024Z,48.03
2023-02-05T07:12:07.846Z,42.10
2023-02-05T07:13:25.369Z,32.60
2023-02-05T07:13:59.409Z,28.57
2023-02-05T07:14:31.596Z,23.63
2023-02-05T07:15:03.515Z,19.17
2023-02-05T07:15:38.190Z,16.13
2023-02-05T07:16:09.923Z,15.10
2023-02-05T07:16:41.552Z,14.30
2023-02-05T07:17:13.393Z,12.60
2023-02-05T07:17:45.049Z,13.03
2023-02-05T07:18:16.786Z,11.63
2023-02-05T07:18:48.484Z,10.70
2023-02-05T07:19:20.146Z,10.80
2023-02-05T07:19:51.830Z,10.50
2023-02-05T07:20:23.553Z,10.60
2023-02-05T07:20:55.205Z,9.87
2023-02-05T07:21:26.906Z,9.83
2023-02-05T07:21:58.633Z,9.67
2023-02-05T07:22:32.488Z,9.13
2023-02-05T07:23:05.595Z,9.27
2023-02-05T07:23:37.342Z,9.47
2023-02-05T07:24:09.026Z,9.37
2023-02-05T07:24:40.888Z,9.03
2023-02-05T07:25:13.019Z,8.73
2023-02-05T07:25:44.670Z,8.77
2023-02-05T07:26:17.843Z,8.30
2023-02-05T07:26:49.457Z,8.33
2023-02-05T07:27:21.174Z,8.13
2023-02-05T07:27:52.823Z,8.83
2023-02-05T07:28:24.457Z,8.70
2023-02-05T07:28:56.892Z,9.70
2023-02-05T07:29:30.679Z,11.60
2023-02-05T07:30:02.472Z,13.47
2023-02-05T07:30:37.077Z,14.23
2023-02-05T07:31:17.119Z,17.43
2023-02-05T07:31:50.253Z,17.43
2023-02-05T07:32:23.322Z,19.00
2023-02-05T07:32:56.580Z,18.57
2023-02-05T07:33:32.925Z,18.27
2023-02-05T07:34:04.607Z,18.37
2023-02-05T07:34:36.346Z,21.03
2023-02-05T07:35:08.262Z,21.90
2023-02-05T07:35:39.974Z,20.73
2023-02-05T07:36:16.336Z,20.37
2023-02-05T07:36:51.904Z,20.97
2023-02-05T07:37:23.584Z,22.07
2023-02-05T07:37:55.281Z,20.50
2023-02-05T07:38:28.296Z,20.20
2023-02-05T07:38:59.952Z,20.27
2023-02-05T07:39:33.447Z,19.30
2023-02-05T07:40:05.628Z,16.37
2023-02-05T07:40:37.585Z,14.53
2023-02-05T07:41:12.145Z,14.47
2023-02-05T07:41:43.802Z,12.30
2023-02-05T07:42:20.468Z,9.00
2023-02-05T07:42:53.254Z,7.67
2023-02-05T07:43:25.036Z,7.33
2023-02-05T07:43:56.721Z,7.83